sensor_id;sensor_type;location;lat;lon;timestamp;pressure;altitude;pressure_sealevel;temperature;humidity
22572;BME280;11452;53.368;14.658;2023-06-04T00:03:24;101711.63;;;12.16;47.01
22572;BME280;11452;53.368;14.658;2023-06-04T00:08:30;101704.73;;;12.10;47.17
22572;BME280;11452;53.368;14.658;2023-06-04T00:13:36;101704.31;;;12.00;47.47
22572;BME280;11452;53.368;14.658;2023-06-04T00:18:42;101703.52;;;11.98;47.67
22572;BME280;11452;53.368;14.658;2023-06-04T00:23:47;101700.64;;;11.93;47.87
22572;BME280;11452;53.368;14.658;2023-06-04T00:28:56;101699.67;;;11.85;47.98
22572;BME280;11452;53.368;14.658;2023-06-04T00:34:03;101692.48;;;11.75;48.32
22572;BME280;11452;53.368;14.658;2023-06-04T00:39:10;101682.81;;;11.63;48.43
22572;BME280;11452;53.368;14.658;2023-06-04T00:44:15;101683.95;;;11.57;48.69
22572;BME280;11452;53.368;14.658;2023-06-04T00:49:22;101681.06;;;11.52;48.96
22572;BME280;11452;53.368;14.658;2023-06-04T00:54:27;101680.49;;;11.45;49.22
22572;BME280;11452;53.368;14.658;2023-06-04T00:59:35;101686.25;;;11.46;49.37
22572;BME280;11452;53.368;14.658;2023-06-04T01:04:59;101685.64;;;11.39;49.34
22572;BME280;11452;53.368;14.658;2023-06-04T01:10:02;101684.11;;;11.24;49.53
22572;BME280;11452;53.368;14.658;2023-06-04T01:15:09;101685.64;;;11.19;49.98
22572;BME280;11452;53.368;14.658;2023-06-04T01:20:25;101686.30;;;11.14;50.10
22572;BME280;11452;53.368;14.658;2023-06-04T01:25:38;101681.92;;;11.13;50.29
22572;BME280;11452;53.368;14.658;2023-06-04T01:30:45;101675.36;;;11.10;50.61
22572;BME280;11452;53.368;14.658;2023-06-04T01:35:51;101675.89;;;11.08;50.62
22572;BME280;11452;53.368;14.658;2023-06-04T01:40:57;101670.66;;;11.05;50.87
22572;BME280;11452;53.368;14.658;2023-06-04T01:46:04;101667.71;;;11.01;51.05
22572;BME280;11452;53.368;14.658;2023-06-04T01:51:10;101671.38;;;10.98;51.25
22572;BME280;11452;53.368;14.658;2023-06-04T01:56:16;101669.58;;;10.99;51.26
22572;BME280;11452;53.368;14.658;2023-06-04T02:01:22;101667.13;;;10.94;51.36
22572;BME280;11452;53.368;14.658;2023-06-04T02:06:27;101666.63;;;10.74;51.64
22572;BME280;11452;53.368;14.658;2023-06-04T02:11:34;101663.09;;;10.74;51.79
22572;BME280;11452;53.368;14.658;2023-06-04T02:16:40;101665.54;;;10.68;52.01
22572;BME280;11452;53.368;14.658;2023-06-04T02:21:46;101658.92;;;10.67;52.31
22572;BME280;11452;53.368;14.658;2023-06-04T02:26:52;101658.62;;;10.53;52.51
22572;BME280;11452;53.368;14.658;2023-06-04T02:32:00;101661.95;;;10.48;52.67
22572;BME280;11452;53.368;14.658;2023-06-04T02:37:07;101664.27;;;10.35;53.03
22572;BME280;11452;53.368;14.658;2023-06-04T02:42:13;101658.22;;;10.30;53.25
22572;BME280;11452;53.368;14.658;2023-06-04T02:47:19;101662.41;;;10.25;53.58
22572;BME280;11452;53.368;14.658;2023-06-04T02:52:25;101665.14;;;10.24;53.74
22572;BME280;11452;53.368;14.658;2023-06-04T02:57:30;101666.53;;;10.22;54.13
22572;BME280;11452;53.368;14.658;2023-06-04T03:02:36;101662.64;;;10.31;54.22
22572;BME280;11452;53.368;14.658;2023-06-04T03:07:43;101666.77;;;10.28;54.22
22572;BME280;11452;53.368;14.658;2023-06-04T03:12:50;101662.81;;;10.26;54.45
22572;BME280;11452;53.368;14.658;2023-06-04T03:17:55;101665.25;;;10.32;54.68
22572;BME280;11452;53.368;14.658;2023-06-04T03:23:01;101662.81;;;10.26;54.57
22572;BME280;11452;53.368;14.658;2023-06-04T03:28:07;101667.45;;;10.33;55.02
22572;BME280;11452;53.368;14.658;2023-06-04T03:33:13;101667.28;;;10.37;55.10
22572;BME280;11452;53.368;14.658;2023-06-04T03:38:19;101673.11;;;10.47;55.34
22572;BME280;11452;53.368;14.658;2023-06-04T03:43:25;101667.98;;;10.53;55.41
22572;BME280;11452;53.368;14.658;2023-06-04T03:48:32;101665.84;;;10.51;55.39
22572;BME280;11452;53.368;14.658;2023-06-04T03:53:38;101664.97;;;10.60;55.92
22572;BME280;11452;53.368;14.658;2023-06-04T03:58:44;101665.30;;;10.74;55.93
22572;BME280;11452;53.368;14.658;2023-06-04T04:03:52;101669.15;;;10.78;55.92
22572;BME280;11452;53.368;14.658;2023-06-04T04:08:58;101670.17;;;10.85;56.12
22572;BME280;11452;53.368;14.658;2023-06-04T04:14:04;101679.81;;;10.89;56.38
22572;BME280;11452;53.368;14.658;2023-06-04T04:19:10;101675.94;;;11.17;57.09
22572;BME280;11452;53.368;14.658;2023-06-04T04:24:26;101671.96;;;11.56;57.18
22572;BME280;11452;53.368;14.658;2023-06-04T04:29:33;101672.25;;;11.89;57.35
22572;BME280;11452;53.368;14.658;2023-06-04T04:34:53;101666.47;;;12.17;57.05
22572;BME280;11452;53.368;14.658;2023-06-04T04:39:49;101680.51;;;12.40;56.81
22572;BME280;11452;53.368;14.658;2023-06-04T04:45:00;101682.03;;;12.55;56.12
22572;BME280;11452;53.368;14.658;2023-06-04T04:50:07;101681.96;;;12.65;55.48
22572;BME280;11452;53.368;14.658;2023-06-04T04:55:13;101684.74;;;12.80;55.33
22572;BME280;11452;53.368;14.658;2023-06-04T05:00:20;101684.80;;;13.24;55.72
22572;BME280;11452;53.368;14.658;2023-06-04T05:05:27;101681.83;;;13.63;55.50
22572;BME280;11452;53.368;14.658;2023-06-04T05:10:33;101684.78;;;13.82;54.70
22572;BME280;11452;53.368;14.658;2023-06-04T05:15:40;101681.69;;;13.90;53.88
22572;BME280;11452;53.368;14.658;2023-06-04T05:20:48;101673.10;;;14.15;53.95
22572;BME280;11452;53.368;14.658;2023-06-04T05:25:54;101681.09;;;14.41;53.12
22572;BME280;11452;53.368;14.658;2023-06-04T05:31:00;101674.20;;;14.44;53.06
22572;BME280;11452;53.368;14.658;2023-06-04T05:36:09;101675.36;;;14.70;52.78
22572;BME280;11452;53.368;14.658;2023-06-04T05:41:16;101672.66;;;14.93;52.36
22572;BME280;11452;53.368;14.658;2023-06-04T05:46:22;101677.63;;;15.21;52.30
22572;BME280;11452;53.368;14.658;2023-06-04T05:51:29;101674.91;;;15.51;52.18
22572;BME280;11452;53.368;14.658;2023-06-04T05:56:36;101676.67;;;15.81;51.67
22572;BME280;11452;53.368;14.658;2023-06-04T06:01:42;101678.11;;;16.01;50.88
22572;BME280;11452;53.368;14.658;2023-06-04T06:06:48;101681.97;;;16.11;50.43
22572;BME280;11452;53.368;14.658;2023-06-04T06:11:54;101694.84;;;16.27;49.77
22572;BME280;11452;53.368;14.658;2023-06-04T06:16:59;101699.56;;;16.23;48.58
22572;BME280;11452;53.368;14.658;2023-06-04T06:22:07;101701.41;;;17.11;47.52
22572;BME280;11452;53.368;14.658;2023-06-04T06:27:13;101704.49;;;16.92;47.78
22572;BME280;11452;53.368;14.658;2023-06-04T06:32:21;101704.94;;;17.06;48.48
22572;BME280;11452;53.368;14.658;2023-06-04T06:37:27;101714.52;;;17.17;47.64
22572;BME280;11452;53.368;14.658;2023-06-04T06:42:33;101712.91;;;17.07;47.04
22572;BME280;11452;53.368;14.658;2023-06-04T06:47:38;101721.26;;;17.37;47.32
22572;BME280;11452;53.368;14.658;2023-06-04T06:52:44;101718.83;;;17.72;46.91
22572;BME280;11452;53.368;14.658;2023-06-04T06:57:50;101722.78;;;17.98;46.35
22572;BME280;11452;53.368;14.658;2023-06-04T07:02:57;101722.38;;;18.10;45.52
22572;BME280;11452;53.368;14.658;2023-06-04T07:08:03;101721.84;;;18.05;44.43
22572;BME280;11452;53.368;14.658;2023-06-04T07:13:10;101720.27;;;18.08;43.78
22572;BME280;11452;53.368;14.658;2023-06-04T07:18:15;101717.15;;;18.20;43.44
22572;BME280;11452;53.368;14.658;2023-06-04T07:23:21;101722.58;;;18.38;42.91
22572;BME280;11452;53.368;14.658;2023-06-04T07:28:27;101728.53;;;18.43;42.26
22572;BME280;11452;53.368;14.658;2023-06-04T07:33:33;101732.33;;;18.41;41.73
22572;BME280;11452;53.368;14.658;2023-06-04T07:38:38;101727.31;;;18.60;41.48
22572;BME280;11452;53.368;14.658;2023-06-04T07:43:44;101730.05;;;18.84;40.91
22572;BME280;11452;53.368;14.658;2023-06-04T07:48:50;101727.84;;;18.65;40.16
22572;BME280;11452;53.368;14.658;2023-06-04T07:53:56;101721.62;;;18.76;40.35
22572;BME280;11452;53.368;14.658;2023-06-04T07:59:01;101722.94;;;18.94;40.31
22572;BME280;11452;53.368;14.658;2023-06-04T08:04:07;101730.31;;;19.10;39.82
22572;BME280;11452;53.368;14.658;2023-06-04T08:09:13;101726.02;;;18.89;38.85
22572;BME280;11452;53.368;14.658;2023-06-04T08:14:19;101714.16;;;19.09;39.12
22572;BME280;11452;53.368;14.658;2023-06-04T08:19:27;101715.41;;;19.16;38.90
22572;BME280;11452;53.368;14.658;2023-06-04T08:24:32;101721.17;;;19.11;38.11
22572;BME280;11452;53.368;14.658;2023-06-04T08:29:38;101715.89;;;19.15;37.68
22572;BME280;11452;53.368;14.658;2023-06-04T08:34:45;101719.55;;;19.38;37.94
22572;BME280;11452;53.368;14.658;2023-06-04T08:39:51;101721.09;;;19.53;37.35
22572;BME280;11452;53.368;14.658;2023-06-04T08:44:58;101718.13;;;19.51;36.61
22572;BME280;11452;53.368;14.658;2023-06-04T08:50:06;101719.17;;;19.78;36.34
22572;BME280;11452;53.368;14.658;2023-06-04T08:55:14;101720.27;;;19.69;35.11
22572;BME280;11452;53.368;14.658;2023-06-04T09:00:21;101722.39;;;19.94;35.71
22572;BME280;11452;53.368;14.658;2023-06-04T09:05:27;101722.66;;;19.85;35.20
22572;BME280;11452;53.368;14.658;2023-06-04T09:10:33;101724.23;;;20.04;34.90
22572;BME280;11452;53.368;14.658;2023-06-04T09:15:41;101722.27;;;20.12;34.43
22572;BME280;11452;53.368;14.658;2023-06-04T09:20:46;101720.91;;;20.29;33.97
22572;BME280;11452;53.368;14.658;2023-06-04T09:25:54;101718.55;;;20.24;33.67
22572;BME280;11452;53.368;14.658;2023-06-04T09:30:59;101715.01;;;20.01;33.41
22572;BME280;11452;53.368;14.658;2023-06-04T09:36:07;101717.84;;;20.22;33.16
22572;BME280;11452;53.368;14.658;2023-06-04T09:41:17;101718.81;;;20.49;32.91
22572;BME280;11452;53.368;14.658;2023-06-04T09:46:24;101714.74;;;20.49;32.69
22572;BME280;11452;53.368;14.658;2023-06-04T09:51:31;101719.06;;;20.52;31.93
22572;BME280;11452;53.368;14.658;2023-06-04T09:56:40;101715.84;;;20.30;32.18
22572;BME280;11452;53.368;14.658;2023-06-04T10:01:47;101710.88;;;20.63;31.97
22572;BME280;11452;53.368;14.658;2023-06-04T10:06:54;101714.49;;;20.58;31.79
22572;BME280;11452;53.368;14.658;2023-06-04T10:12:00;101711.36;;;20.68;31.62
22572;BME280;11452;53.368;14.658;2023-06-04T10:17:07;101706.30;;;20.74;31.78
22572;BME280;11452;53.368;14.658;2023-06-04T10:22:14;101703.91;;;20.81;31.51
22572;BME280;11452;53.368;14.658;2023-06-04T10:27:21;101712.73;;;21.00;31.43
22572;BME280;11452;53.368;14.658;2023-06-04T10:32:30;101712.83;;;21.09;31.28
22572;BME280;11452;53.368;14.658;2023-06-04T10:37:36;101715.20;;;21.03;31.00
22572;BME280;11452;53.368;14.658;2023-06-04T10:42:42;101703.20;;;21.05;30.80
22572;BME280;11452;53.368;14.658;2023-06-04T10:47:58;101709.33;;;21.24;30.81
22572;BME280;11452;53.368;14.658;2023-06-04T10:52:57;101711.59;;;21.08;30.42
22572;BME280;11452;53.368;14.658;2023-06-04T10:58:03;101706.03;;;21.09;30.47
22572;BME280;11452;53.368;14.658;2023-06-04T11:03:11;101710.72;;;21.13;30.32
22572;BME280;11452;53.368;14.658;2023-06-04T11:08:28;101701.42;;;21.21;30.37
22572;BME280;11452;53.368;14.658;2023-06-04T11:13:36;101700.30;;;21.24;29.85
22572;BME280;11452;53.368;14.658;2023-06-04T11:18:41;101707.14;;;21.39;30.06
22572;BME280;11452;53.368;14.658;2023-06-04T11:23:47;101688.46;;;21.76;30.24
22572;BME280;11452;53.368;14.658;2023-06-04T11:28:53;101688.79;;;21.98;30.08
22572;BME280;11452;53.368;14.658;2023-06-04T11:33:59;101700.28;;;21.86;29.45
22572;BME280;11452;53.368;14.658;2023-06-04T11:39:05;101682.13;;;21.81;29.33
22572;BME280;11452;53.368;14.658;2023-06-04T11:44:12;101683.88;;;21.92;29.28
22572;BME280;11452;53.368;14.658;2023-06-04T11:49:19;101678.50;;;21.86;29.12
22572;BME280;11452;53.368;14.658;2023-06-04T11:54:25;101689.80;;;22.12;28.89
22572;BME280;11452;53.368;14.658;2023-06-04T11:59:31;101672.81;;;22.04;29.20
22572;BME280;11452;53.368;14.658;2023-06-04T12:04:37;101676.30;;;22.01;28.52
22572;BME280;11452;53.368;14.658;2023-06-04T12:09:43;101680.54;;;22.09;29.04
22572;BME280;11452;53.368;14.658;2023-06-04T12:14:57;101680.28;;;22.37;28.93
22572;BME280;11452;53.368;14.658;2023-06-04T12:20:04;101681.55;;;22.58;28.74
22572;BME280;11452;53.368;14.658;2023-06-04T12:25:10;101673.38;;;22.33;27.63
22572;BME280;11452;53.368;14.658;2023-06-04T12:30:16;101672.02;;;22.23;27.75
22572;BME280;11452;53.368;14.658;2023-06-04T12:35:21;101673.20;;;22.50;28.16
22572;BME280;11452;53.368;14.658;2023-06-04T12:40:27;101675.69;;;22.62;27.46
22572;BME280;11452;53.368;14.658;2023-06-04T12:45:33;101668.23;;;22.74;27.78
22572;BME280;11452;53.368;14.658;2023-06-04T12:50:39;101671.16;;;22.82;27.56
22572;BME280;11452;53.368;14.658;2023-06-04T12:55:45;101675.74;;;22.82;26.70
22572;BME280;11452;53.368;14.658;2023-06-04T13:00:50;101675.95;;;22.94;26.86
22572;BME280;11452;53.368;14.658;2023-06-04T13:05:56;101670.23;;;22.72;26.10
22572;BME280;11452;53.368;14.658;2023-06-04T13:11:02;101671.98;;;22.83;26.38
22572;BME280;11452;53.368;14.658;2023-06-04T13:16:09;101673.36;;;23.11;26.54
22572;BME280;11452;53.368;14.658;2023-06-04T13:21:15;101667.59;;;23.53;26.47
22572;BME280;11452;53.368;14.658;2023-06-04T13:26:21;101662.88;;;23.69;26.48
22572;BME280;11452;53.368;14.658;2023-06-04T13:31:27;101669.51;;;23.94;26.11
22572;BME280;11452;53.368;14.658;2023-06-04T13:36:33;101664.73;;;23.92;25.56
22572;BME280;11452;53.368;14.658;2023-06-04T13:41:39;101657.42;;;23.82;25.71
22572;BME280;11452;53.368;14.658;2023-06-04T13:46:44;101657.08;;;23.95;25.21
22572;BME280;11452;53.368;14.658;2023-06-04T13:51:50;101652.19;;;23.75;25.63
22572;BME280;11452;53.368;14.658;2023-06-04T13:56:56;101646.13;;;24.32;25.95
22572;BME280;11452;53.368;14.658;2023-06-04T14:02:01;101647.02;;;24.68;26.03
22572;BME280;11452;53.368;14.658;2023-06-04T14:07:07;101646.05;;;24.91;25.79
22572;BME280;11452;53.368;14.658;2023-06-04T14:12:13;101645.15;;;24.69;25.00
22572;BME280;11452;53.368;14.658;2023-06-04T14:17:20;101642.53;;;24.32;24.98
22572;BME280;11452;53.368;14.658;2023-06-04T14:22:26;101637.37;;;24.42;25.01
22572;BME280;11452;53.368;14.658;2023-06-04T14:27:32;101635.62;;;24.24;24.49
22572;BME280;11452;53.368;14.658;2023-06-04T14:32:38;101634.45;;;24.26;24.50
22572;BME280;11452;53.368;14.658;2023-06-04T14:37:45;101640.45;;;24.02;23.96
22572;BME280;11452;53.368;14.658;2023-06-04T14:42:50;101631.15;;;24.09;24.14
22572;BME280;11452;53.368;14.658;2023-06-04T14:47:56;101628.91;;;24.22;24.45
22572;BME280;11452;53.368;14.658;2023-06-04T14:53:03;101622.19;;;24.44;23.97
22572;BME280;11452;53.368;14.658;2023-06-04T14:58:11;101631.85;;;24.38;24.32
22572;BME280;11452;53.368;14.658;2023-06-04T15:03:16;101621.39;;;24.51;23.96
22572;BME280;11452;53.368;14.658;2023-06-04T15:08:22;101621.38;;;24.47;23.88
22572;BME280;11452;53.368;14.658;2023-06-04T15:13:28;101615.42;;;24.52;24.32
22572;BME280;11452;53.368;14.658;2023-06-04T15:18:34;101612.47;;;24.45;24.14
22572;BME280;11452;53.368;14.658;2023-06-04T15:23:40;101606.39;;;24.38;24.99
22572;BME280;11452;53.368;14.658;2023-06-04T15:28:48;101613.95;;;24.58;24.51
22572;BME280;11452;53.368;14.658;2023-06-04T15:33:53;101610.23;;;24.31;24.96
22572;BME280;11452;53.368;14.658;2023-06-04T15:38:59;101607.06;;;24.54;25.65
22572;BME280;11452;53.368;14.658;2023-06-04T15:44:05;101606.17;;;24.84;26.01
22572;BME280;11452;53.368;14.658;2023-06-04T15:49:11;101604.56;;;26.03;25.42
22572;BME280;11452;53.368;14.658;2023-06-04T15:54:17;101607.14;;;26.05;24.33
22572;BME280;11452;53.368;14.658;2023-06-04T15:59:24;101613.03;;;25.28;24.35
22572;BME280;11452;53.368;14.658;2023-06-04T16:04:30;101612.98;;;25.20;24.44
22572;BME280;11452;53.368;14.658;2023-06-04T16:09:36;101602.15;;;25.36;24.85
22572;BME280;11452;53.368;14.658;2023-06-04T16:14:41;101609.08;;;25.23;24.36
22572;BME280;11452;53.368;14.658;2023-06-04T16:19:47;101603.11;;;24.70;24.44
22572;BME280;11452;53.368;14.658;2023-06-04T16:24:52;101596.37;;;24.60;24.38
22572;BME280;11452;53.368;14.658;2023-06-04T16:29:58;101596.27;;;24.66;24.40
22572;BME280;11452;53.368;14.658;2023-06-04T16:35:04;101601.79;;;24.74;24.70
22572;BME280;11452;53.368;14.658;2023-06-04T16:40:12;101601.67;;;24.79;24.68
22572;BME280;11452;53.368;14.658;2023-06-04T16:45:18;101602.23;;;24.87;24.71
22572;BME280;11452;53.368;14.658;2023-06-04T16:50:24;101601.56;;;24.85;24.93
22572;BME280;11452;53.368;14.658;2023-06-04T16:55:30;101599.66;;;25.21;25.14
22572;BME280;11452;53.368;14.658;2023-06-04T17:00:38;101593.55;;;25.61;25.32
22572;BME280;11452;53.368;14.658;2023-06-04T17:05:45;101600.67;;;26.14;25.05
22572;BME280;11452;53.368;14.658;2023-06-04T17:10:51;101594.94;;;26.41;24.21
22572;BME280;11452;53.368;14.658;2023-06-04T17:15:57;101589.47;;;25.99;24.25
22572;BME280;11452;53.368;14.658;2023-06-04T17:21:02;101597.98;;;25.54;24.96
22572;BME280;11452;53.368;14.658;2023-06-04T17:26:08;101601.03;;;25.51;24.90
22572;BME280;11452;53.368;14.658;2023-06-04T17:31:14;101600.14;;;25.46;25.27
22572;BME280;11452;53.368;14.658;2023-06-04T17:36:21;101597.24;;;25.48;25.34
22572;BME280;11452;53.368;14.658;2023-06-04T17:41:27;101596.05;;;25.72;25.46
22572;BME280;11452;53.368;14.658;2023-06-04T17:46:33;101601.55;;;25.50;25.52
22572;BME280;11452;53.368;14.658;2023-06-04T17:51:39;101602.84;;;25.42;25.54
22572;BME280;11452;53.368;14.658;2023-06-04T17:56:44;101616.03;;;25.39;26.10
22572;BME280;11452;53.368;14.658;2023-06-04T18:01:50;101603.70;;;25.65;26.16
22572;BME280;11452;53.368;14.658;2023-06-04T18:06:56;101600.88;;;25.52;26.35
22572;BME280;11452;53.368;14.658;2023-06-04T18:12:03;101606.06;;;25.60;26.96
22572;BME280;11452;53.368;14.658;2023-06-04T18:17:11;101603.95;;;25.75;26.71
22572;BME280;11452;53.368;14.658;2023-06-04T18:22:17;101602.89;;;26.18;27.43
22572;BME280;11452;53.368;14.658;2023-06-04T18:27:24;101607.13;;;26.55;26.95
22572;BME280;11452;53.368;14.658;2023-06-04T18:32:30;101601.52;;;27.13;26.40
22572;BME280;11452;53.368;14.658;2023-06-04T18:37:36;101614.02;;;27.40;26.05
22572;BME280;11452;53.368;14.658;2023-06-04T18:42:42;101611.48;;;27.27;24.78
22572;BME280;11452;53.368;14.658;2023-06-04T18:47:48;101613.48;;;26.05;23.85
22572;BME280;11452;53.368;14.658;2023-06-04T18:52:54;101624.16;;;25.05;24.24
22572;BME280;11452;53.368;14.658;2023-06-04T18:58:00;101632.27;;;25.36;24.05
22572;BME280;11452;53.368;14.658;2023-06-04T19:03:06;101629.48;;;24.12;24.73
22572;BME280;11452;53.368;14.658;2023-06-04T19:08:11;101632.20;;;23.61;25.25
22572;BME280;11452;53.368;14.658;2023-06-04T19:13:18;101638.19;;;23.08;25.72
22572;BME280;11452;53.368;14.658;2023-06-04T19:18:24;101640.61;;;22.73;26.24
22572;BME280;11452;53.368;14.658;2023-06-04T19:23:30;101646.67;;;22.42;26.63
22572;BME280;11452;53.368;14.658;2023-06-04T19:28:36;101656.47;;;22.04;27.17
22572;BME280;11452;53.368;14.658;2023-06-04T19:33:43;101654.27;;;21.68;27.79
22572;BME280;11452;53.368;14.658;2023-06-04T19:38:49;101663.22;;;21.43;28.17
22572;BME280;11452;53.368;14.658;2023-06-04T19:43:55;101665.56;;;21.16;28.64
22572;BME280;11452;53.368;14.658;2023-06-04T19:49:01;101672.00;;;20.94;29.17
22572;BME280;11452;53.368;14.658;2023-06-04T19:54:08;101679.20;;;20.79;29.55
22572;BME280;11452;53.368;14.658;2023-06-04T19:59:15;101671.28;;;20.44;30.21
22572;BME280;11452;53.368;14.658;2023-06-04T20:04:20;101674.86;;;20.27;30.99
22572;BME280;11452;53.368;14.658;2023-06-04T20:09:26;101685.98;;;20.08;31.56
22572;BME280;11452;53.368;14.658;2023-06-04T20:14:32;101686.26;;;19.82;32.06
22572;BME280;11452;53.368;14.658;2023-06-04T20:19:40;101697.83;;;19.62;32.77
22572;BME280;11452;53.368;14.658;2023-06-04T20:24:46;101696.02;;;19.38;33.25
22572;BME280;11452;53.368;14.658;2023-06-04T20:29:52;101701.13;;;19.19;33.93
22572;BME280;11452;53.368;14.658;2023-06-04T20:34:57;101702.39;;;18.97;34.30
22572;BME280;11452;53.368;14.658;2023-06-04T20:40:03;101702.55;;;18.77;34.75
22572;BME280;11452;53.368;14.658;2023-06-04T20:45:09;101705.46;;;18.56;35.20
22572;BME280;11452;53.368;14.658;2023-06-04T20:50:15;101713.53;;;18.45;35.71
22572;BME280;11452;53.368;14.658;2023-06-04T20:55:21;101722.02;;;18.27;35.98
22572;BME280;11452;53.368;14.658;2023-06-04T21:00:27;101719.02;;;18.07;36.26
22572;BME280;11452;53.368;14.658;2023-06-04T21:05:33;101724.29;;;17.90;36.64
22572;BME280;11452;53.368;14.658;2023-06-04T21:10:39;101727.98;;;17.76;37.09
22572;BME280;11452;53.368;14.658;2023-06-04T21:15:45;101730.87;;;17.60;37.40
22572;BME280;11452;53.368;14.658;2023-06-04T21:20:51;101730.73;;;17.49;37.91
22572;BME280;11452;53.368;14.658;2023-06-04T21:25:57;101732.76;;;17.33;38.24
22572;BME280;11452;53.368;14.658;2023-06-04T21:31:02;101732.36;;;17.19;38.65
22572;BME280;11452;53.368;14.658;2023-06-04T21:36:08;101734.17;;;17.06;38.96
22572;BME280;11452;53.368;14.658;2023-06-04T21:41:14;101739.22;;;16.91;39.34
22572;BME280;11452;53.368;14.658;2023-06-04T21:46:19;101729.92;;;16.82;39.63
22572;BME280;11452;53.368;14.658;2023-06-04T21:51:25;101734.17;;;16.72;40.04
22572;BME280;11452;53.368;14.658;2023-06-04T21:56:31;101734.86;;;16.61;40.19
22572;BME280;11452;53.368;14.658;2023-06-04T22:01:37;101740.20;;;16.49;40.59
22572;BME280;11452;53.368;14.658;2023-06-04T22:06:43;101744.06;;;16.38;40.78
22572;BME280;11452;53.368;14.658;2023-06-04T22:11:49;101750.36;;;16.31;41.12
22572;BME280;11452;53.368;14.658;2023-06-04T22:16:55;101754.20;;;16.20;41.30
22572;BME280;11452;53.368;14.658;2023-06-04T22:22:00;101751.62;;;16.11;41.68
22572;BME280;11452;53.368;14.658;2023-06-04T22:27:06;101752.75;;;16.00;42.04
22572;BME280;11452;53.368;14.658;2023-06-04T22:32:12;101754.41;;;15.96;42.38
22572;BME280;11452;53.368;14.658;2023-06-04T22:37:19;101746.70;;;15.89;42.56
22572;BME280;11452;53.368;14.658;2023-06-04T22:42:25;101750.63;;;15.84;42.73
22572;BME280;11452;53.368;14.658;2023-06-04T22:47:31;101742.73;;;15.74;42.99
22572;BME280;11452;53.368;14.658;2023-06-04T22:52:37;101741.46;;;15.65;43.20
22572;BME280;11452;53.368;14.658;2023-06-04T22:57:44;101741.47;;;15.58;43.47
22572;BME280;11452;53.368;14.658;2023-06-04T23:02:50;101736.66;;;15.56;43.63
22572;BME280;11452;53.368;14.658;2023-06-04T23:07:56;101731.98;;;15.51;43.82
22572;BME280;11452;53.368;14.658;2023-06-04T23:13:02;101735.70;;;15.41;44.08
22572;BME280;11452;53.368;14.658;2023-06-04T23:18:07;101739.05;;;15.31;44.27
22572;BME280;11452;53.368;14.658;2023-06-04T23:23:13;101733.72;;;15.22;44.48
22572;BME280;11452;53.368;14.658;2023-06-04T23:28:19;101734.19;;;15.14;44.69
22572;BME280;11452;53.368;14.658;2023-06-04T23:33:25;101735.98;;;15.07;44.89
22572;BME280;11452;53.368;14.658;2023-06-04T23:38:30;101741.93;;;15.05;45.28
22572;BME280;11452;53.368;14.658;2023-06-04T23:43:36;101740.66;;;14.96;45.54
22572;BME280;11452;53.368;14.658;2023-06-04T23:48:42;101739.45;;;14.86;45.71
22572;BME280;11452;53.368;14.658;2023-06-04T23:53:47;101743.47;;;14.79;45.96
22572;BME280;11452;53.368;14.658;2023-06-04T23:58:53;101743.25;;;14.75;46.23
